sensor_id;sensor_type;location;lat;lon;timestamp;P1;durP1;ratioP1;P2;durP2;ratioP2
18997;SDS011;9632;51.018;4.284;2022-10-15T00:00:52;19.60;;;11.32;;
18997;SDS011;9632;51.018;4.284;2022-10-15T00:03:18;18.15;;;10.77;;
18997;SDS011;9632;51.018;4.284;2022-10-15T00:05:43;16.15;;;10.25;;
18997;SDS011;9632;51.018;4.284;2022-10-15T00:08:09;21.13;;;11.15;;
18997;SDS011;9632;51.018;4.284;2022-10-15T00:10:36;23.77;;;12.25;;
18997;SDS011;9632;51.018;4.284;2022-10-15T00:13:02;19.25;;;10.82;;
18997;SDS011;9632;51.018;4.284;2022-10-15T00:15:29;23.52;;;12.70;;
18997;SDS011;9632;51.018;4.284;2022-10-15T00:17:55;23.58;;;13.07;;
18997;SDS011;9632;51.018;4.284;2022-10-15T00:20:20;27.38;;;14.60;;
18997;SDS011;9632;51.018;4.284;2022-10-15T00:22:46;21.27;;;13.02;;
18997;SDS011;9632;51.018;4.284;2022-10-15T00:25:12;22.67;;;12.60;;
18997;SDS011;9632;51.018;4.284;2022-10-15T00:27:38;22.42;;;13.00;;
18997;SDS011;9632;51.018;4.284;2022-10-15T00:30:04;20.23;;;12.60;;
18997;SDS011;9632;51.018;4.284;2022-10-15T00:32:30;19.10;;;11.90;;
18997;SDS011;9632;51.018;4.284;2022-10-15T00:34:57;20.08;;;12.57;;
18997;SDS011;9632;51.018;4.284;2022-10-15T00:37:22;21.35;;;12.90;;
18997;SDS011;9632;51.018;4.284;2022-10-15T00:39:48;22.05;;;13.35;;
18997;SDS011;9632;51.018;4.284;2022-10-15T00:42:14;21.75;;;13.93;;
18997;SDS011;9632;51.018;4.284;2022-10-15T00:44:48;23.45;;;14.02;;
18997;SDS011;9632;51.018;4.284;2022-10-15T00:47:27;19.95;;;13.13;;
18997;SDS011;9632;51.018;4.284;2022-10-15T00:50:08;19.83;;;13.07;;
18997;SDS011;9632;51.018;4.284;2022-10-15T00:55:30;20.92;;;12.85;;
18997;SDS011;9632;51.018;4.284;2022-10-15T00:58:06;22.13;;;13.82;;
18997;SDS011;9632;51.018;4.284;2022-10-15T01:00:34;22.95;;;14.25;;
18997;SDS011;9632;51.018;4.284;2022-10-15T01:03:00;22.90;;;14.50;;
18997;SDS011;9632;51.018;4.284;2022-10-15T01:05:25;22.55;;;13.98;;
18997;SDS011;9632;51.018;4.284;2022-10-15T01:07:51;21.92;;;14.00;;
18997;SDS011;9632;51.018;4.284;2022-10-15T01:10:17;21.80;;;14.05;;
18997;SDS011;9632;51.018;4.284;2022-10-15T01:15:28;21.48;;;14.50;;
18997;SDS011;9632;51.018;4.284;2022-10-15T01:18:09;22.77;;;14.95;;
18997;SDS011;9632;51.018;4.284;2022-10-15T01:20:49;23.75;;;15.77;;
18997;SDS011;9632;51.018;4.284;2022-10-15T01:39:42;24.08;;;15.30;;
18997;SDS011;9632;51.018;4.284;2022-10-15T01:42:17;27.20;;;16.30;;
18997;SDS011;9632;51.018;4.284;2022-10-15T01:44:53;27.90;;;17.05;;
18997;SDS011;9632;51.018;4.284;2022-10-15T01:47:24;25.10;;;16.38;;
18997;SDS011;9632;51.018;4.284;2022-10-15T01:49:59;23.33;;;15.55;;
18997;SDS011;9632;51.018;4.284;2022-10-15T01:52:30;25.23;;;16.33;;
18997;SDS011;9632;51.018;4.284;2022-10-15T01:54:57;28.25;;;17.45;;
18997;SDS011;9632;51.018;4.284;2022-10-15T01:57:24;24.23;;;15.48;;
18997;SDS011;9632;51.018;4.284;2022-10-15T01:59:52;25.85;;;16.08;;
18997;SDS011;9632;51.018;4.284;2022-10-15T02:02:18;25.42;;;16.40;;
18997;SDS011;9632;51.018;4.284;2022-10-15T02:04:44;23.48;;;15.82;;
18997;SDS011;9632;51.018;4.284;2022-10-15T02:15:18;23.55;;;15.77;;
18997;SDS011;9632;51.018;4.284;2022-10-15T02:18:04;25.33;;;15.70;;
18997;SDS011;9632;51.018;4.284;2022-10-15T02:23:44;23.52;;;15.88;;
18997;SDS011;9632;51.018;4.284;2022-10-15T02:26:20;26.10;;;16.02;;
18997;SDS011;9632;51.018;4.284;2022-10-15T02:28:51;23.98;;;15.77;;
18997;SDS011;9632;51.018;4.284;2022-10-15T02:31:20;26.42;;;15.68;;
18997;SDS011;9632;51.018;4.284;2022-10-15T02:33:47;25.50;;;16.77;;
18997;SDS011;9632;51.018;4.284;2022-10-15T02:36:15;25.52;;;16.65;;
18997;SDS011;9632;51.018;4.284;2022-10-15T02:38:43;24.65;;;17.27;;
18997;SDS011;9632;51.018;4.284;2022-10-15T02:41:10;27.25;;;18.05;;
18997;SDS011;9632;51.018;4.284;2022-10-15T02:43:36;27.92;;;18.00;;
18997;SDS011;9632;51.018;4.284;2022-10-15T02:46:03;26.55;;;17.75;;
18997;SDS011;9632;51.018;4.284;2022-10-15T02:48:30;30.25;;;19.40;;
18997;SDS011;9632;51.018;4.284;2022-10-15T02:50:56;31.52;;;19.80;;
18997;SDS011;9632;51.018;4.284;2022-10-15T02:53:21;31.10;;;20.83;;
18997;SDS011;9632;51.018;4.284;2022-10-15T02:55:47;32.70;;;20.73;;
18997;SDS011;9632;51.018;4.284;2022-10-15T02:58:13;32.67;;;20.48;;
18997;SDS011;9632;51.018;4.284;2022-10-15T03:00:38;34.25;;;20.88;;
18997;SDS011;9632;51.018;4.284;2022-10-15T03:03:04;43.30;;;24.02;;
18997;SDS011;9632;51.018;4.284;2022-10-15T03:05:29;42.63;;;24.33;;
18997;SDS011;9632;51.018;4.284;2022-10-15T03:07:55;39.08;;;22.40;;
18997;SDS011;9632;51.018;4.284;2022-10-15T03:10:23;39.08;;;23.50;;
18997;SDS011;9632;51.018;4.284;2022-10-15T03:12:48;42.85;;;24.15;;
18997;SDS011;9632;51.018;4.284;2022-10-15T03:15:14;41.72;;;23.48;;
18997;SDS011;9632;51.018;4.284;2022-10-15T03:17:39;45.55;;;24.70;;
18997;SDS011;9632;51.018;4.284;2022-10-15T03:20:05;43.35;;;25.00;;
18997;SDS011;9632;51.018;4.284;2022-10-15T03:22:31;43.22;;;24.70;;
18997;SDS011;9632;51.018;4.284;2022-10-15T03:24:56;41.50;;;23.75;;
18997;SDS011;9632;51.018;4.284;2022-10-15T03:27:22;43.90;;;24.13;;
18997;SDS011;9632;51.018;4.284;2022-10-15T03:29:48;40.00;;;21.58;;
18997;SDS011;9632;51.018;4.284;2022-10-15T03:32:14;37.90;;;21.63;;
18997;SDS011;9632;51.018;4.284;2022-10-15T03:34:40;38.00;;;21.92;;
18997;SDS011;9632;51.018;4.284;2022-10-15T03:37:05;37.83;;;22.25;;
18997;SDS011;9632;51.018;4.284;2022-10-15T03:39:31;39.97;;;23.95;;
18997;SDS011;9632;51.018;4.284;2022-10-15T03:41:56;42.42;;;23.10;;
18997;SDS011;9632;51.018;4.284;2022-10-15T03:44:22;45.58;;;22.77;;
18997;SDS011;9632;51.018;4.284;2022-10-15T03:46:48;41.53;;;22.25;;
18997;SDS011;9632;51.018;4.284;2022-10-15T03:49:13;42.00;;;22.55;;
18997;SDS011;9632;51.018;4.284;2022-10-15T03:51:39;33.47;;;19.67;;
18997;SDS011;9632;51.018;4.284;2022-10-15T03:54:04;35.10;;;20.15;;
18997;SDS011;9632;51.018;4.284;2022-10-15T03:56:30;36.67;;;20.70;;
18997;SDS011;9632;51.018;4.284;2022-10-15T03:58:55;34.75;;;19.42;;
18997;SDS011;9632;51.018;4.284;2022-10-15T04:01:21;31.95;;;18.83;;
18997;SDS011;9632;51.018;4.284;2022-10-15T04:03:50;33.38;;;19.65;;
18997;SDS011;9632;51.018;4.284;2022-10-15T04:06:17;29.05;;;17.13;;
18997;SDS011;9632;51.018;4.284;2022-10-15T04:08:42;29.08;;;17.15;;
18997;SDS011;9632;51.018;4.284;2022-10-15T04:11:08;27.25;;;16.60;;
18997;SDS011;9632;51.018;4.284;2022-10-15T04:13:34;28.75;;;16.42;;
18997;SDS011;9632;51.018;4.284;2022-10-15T04:15:59;24.55;;;15.13;;
18997;SDS011;9632;51.018;4.284;2022-10-15T04:18:28;28.52;;;16.05;;
18997;SDS011;9632;51.018;4.284;2022-10-15T04:20:57;23.88;;;14.32;;
18997;SDS011;9632;51.018;4.284;2022-10-15T04:23:25;28.05;;;15.52;;
18997;SDS011;9632;51.018;4.284;2022-10-15T04:25:50;25.60;;;15.43;;
18997;SDS011;9632;51.018;4.284;2022-10-15T04:28:16;24.08;;;15.52;;
18997;SDS011;9632;51.018;4.284;2022-10-15T04:30:41;23.75;;;14.68;;
18997;SDS011;9632;51.018;4.284;2022-10-15T04:33:08;24.33;;;14.82;;
18997;SDS011;9632;51.018;4.284;2022-10-15T04:35:34;25.67;;;15.75;;
18997;SDS011;9632;51.018;4.284;2022-10-15T04:38:00;26.58;;;16.13;;
18997;SDS011;9632;51.018;4.284;2022-10-15T04:40:26;30.38;;;16.55;;
18997;SDS011;9632;51.018;4.284;2022-10-15T04:42:52;25.67;;;15.48;;
18997;SDS011;9632;51.018;4.284;2022-10-15T04:45:17;25.10;;;16.17;;
18997;SDS011;9632;51.018;4.284;2022-10-15T04:47:43;28.60;;;17.08;;
18997;SDS011;9632;51.018;4.284;2022-10-15T04:50:09;26.00;;;16.73;;
18997;SDS011;9632;51.018;4.284;2022-10-15T04:52:35;30.15;;;17.02;;
18997;SDS011;9632;51.018;4.284;2022-10-15T04:55:01;25.02;;;15.13;;
18997;SDS011;9632;51.018;4.284;2022-10-15T04:57:28;23.20;;;15.20;;
18997;SDS011;9632;51.018;4.284;2022-10-15T04:59:54;26.30;;;17.02;;
18997;SDS011;9632;51.018;4.284;2022-10-15T05:02:20;25.67;;;14.88;;
18997;SDS011;9632;51.018;4.284;2022-10-15T05:04:46;22.02;;;14.63;;
18997;SDS011;9632;51.018;4.284;2022-10-15T05:07:11;25.60;;;15.40;;
18997;SDS011;9632;51.018;4.284;2022-10-15T05:09:37;21.60;;;13.68;;
18997;SDS011;9632;51.018;4.284;2022-10-15T05:12:02;20.38;;;13.30;;
18997;SDS011;9632;51.018;4.284;2022-10-15T05:14:28;20.70;;;12.73;;
18997;SDS011;9632;51.018;4.284;2022-10-15T05:16:54;19.65;;;12.00;;
18997;SDS011;9632;51.018;4.284;2022-10-15T05:19:19;22.05;;;12.95;;
18997;SDS011;9632;51.018;4.284;2022-10-15T05:21:45;20.45;;;12.02;;
18997;SDS011;9632;51.018;4.284;2022-10-15T05:24:10;17.52;;;11.40;;
18997;SDS011;9632;51.018;4.284;2022-10-15T05:26:36;18.63;;;11.48;;
18997;SDS011;9632;51.018;4.284;2022-10-15T05:29:02;19.75;;;10.93;;
18997;SDS011;9632;51.018;4.284;2022-10-15T05:31:28;19.02;;;11.27;;
18997;SDS011;9632;51.018;4.284;2022-10-15T05:33:55;18.05;;;11.43;;
18997;SDS011;9632;51.018;4.284;2022-10-15T05:36:25;19.20;;;11.30;;
18997;SDS011;9632;51.018;4.284;2022-10-15T05:38:53;18.50;;;10.82;;
18997;SDS011;9632;51.018;4.284;2022-10-15T05:41:19;18.23;;;10.70;;
18997;SDS011;9632;51.018;4.284;2022-10-15T05:43:46;17.10;;;10.18;;
18997;SDS011;9632;51.018;4.284;2022-10-15T05:46:13;19.92;;;10.38;;
18997;SDS011;9632;51.018;4.284;2022-10-15T05:48:38;18.38;;;10.73;;
18997;SDS011;9632;51.018;4.284;2022-10-15T05:51:05;17.10;;;10.15;;
18997;SDS011;9632;51.018;4.284;2022-10-15T05:53:32;17.02;;;10.23;;
18997;SDS011;9632;51.018;4.284;2022-10-15T05:55:58;18.30;;;10.48;;
18997;SDS011;9632;51.018;4.284;2022-10-15T05:58:24;21.30;;;10.82;;
18997;SDS011;9632;51.018;4.284;2022-10-15T06:00:54;18.73;;;10.07;;
18997;SDS011;9632;51.018;4.284;2022-10-15T06:03:19;17.85;;;10.98;;
18997;SDS011;9632;51.018;4.284;2022-10-15T06:05:45;15.25;;;9.23;;
18997;SDS011;9632;51.018;4.284;2022-10-15T06:08:11;17.58;;;10.48;;
18997;SDS011;9632;51.018;4.284;2022-10-15T06:10:36;15.32;;;9.18;;
18997;SDS011;9632;51.018;4.284;2022-10-15T06:13:03;18.15;;;10.15;;
18997;SDS011;9632;51.018;4.284;2022-10-15T06:15:29;18.15;;;10.15;;
18997;SDS011;9632;51.018;4.284;2022-10-15T06:17:55;16.55;;;9.38;;
18997;SDS011;9632;51.018;4.284;2022-10-15T06:20:20;16.35;;;8.85;;
18997;SDS011;9632;51.018;4.284;2022-10-15T06:22:46;19.25;;;9.23;;
18997;SDS011;9632;51.018;4.284;2022-10-15T06:25:12;14.65;;;8.70;;
18997;SDS011;9632;51.018;4.284;2022-10-15T06:27:37;15.75;;;8.90;;
18997;SDS011;9632;51.018;4.284;2022-10-15T06:30:03;14.73;;;8.38;;
18997;SDS011;9632;51.018;4.284;2022-10-15T06:32:29;14.15;;;8.23;;
18997;SDS011;9632;51.018;4.284;2022-10-15T06:34:55;13.70;;;8.13;;
18997;SDS011;9632;51.018;4.284;2022-10-15T06:37:20;14.65;;;7.80;;
18997;SDS011;9632;51.018;4.284;2022-10-15T06:39:46;16.13;;;9.00;;
18997;SDS011;9632;51.018;4.284;2022-10-15T06:42:12;14.02;;;8.18;;
18997;SDS011;9632;51.018;4.284;2022-10-15T06:44:38;17.48;;;8.98;;
18997;SDS011;9632;51.018;4.284;2022-10-15T06:47:04;14.25;;;8.35;;
18997;SDS011;9632;51.018;4.284;2022-10-15T06:49:30;14.35;;;8.20;;
18997;SDS011;9632;51.018;4.284;2022-10-15T06:51:55;13.15;;;7.80;;
18997;SDS011;9632;51.018;4.284;2022-10-15T06:54:22;13.70;;;7.43;;
18997;SDS011;9632;51.018;4.284;2022-10-15T06:56:49;14.65;;;8.07;;
18997;SDS011;9632;51.018;4.284;2022-10-15T06:59:15;12.88;;;7.40;;
18997;SDS011;9632;51.018;4.284;2022-10-15T07:01:40;13.48;;;7.50;;
18997;SDS011;9632;51.018;4.284;2022-10-15T07:04:06;12.50;;;6.95;;
18997;SDS011;9632;51.018;4.284;2022-10-15T07:06:33;14.48;;;6.97;;
18997;SDS011;9632;51.018;4.284;2022-10-15T07:09:00;11.07;;;6.28;;
18997;SDS011;9632;51.018;4.284;2022-10-15T07:11:26;11.80;;;7.03;;
18997;SDS011;9632;51.018;4.284;2022-10-15T07:13:52;11.25;;;6.60;;
18997;SDS011;9632;51.018;4.284;2022-10-15T07:16:18;10.43;;;6.05;;
18997;SDS011;9632;51.018;4.284;2022-10-15T07:18:46;10.48;;;6.20;;
18997;SDS011;9632;51.018;4.284;2022-10-15T07:21:11;10.70;;;6.47;;
18997;SDS011;9632;51.018;4.284;2022-10-15T07:23:37;14.07;;;6.93;;
18997;SDS011;9632;51.018;4.284;2022-10-15T07:26:03;10.65;;;6.07;;
18997;SDS011;9632;51.018;4.284;2022-10-15T07:28:28;11.60;;;6.38;;
18997;SDS011;9632;51.018;4.284;2022-10-15T07:30:58;10.75;;;6.15;;
18997;SDS011;9632;51.018;4.284;2022-10-15T07:33:25;11.63;;;5.88;;
18997;SDS011;9632;51.018;4.284;2022-10-15T07:35:50;12.15;;;6.43;;
18997;SDS011;9632;51.018;4.284;2022-10-15T07:38:16;8.98;;;5.50;;
18997;SDS011;9632;51.018;4.284;2022-10-15T07:40:42;8.82;;;5.60;;
18997;SDS011;9632;51.018;4.284;2022-10-15T07:43:07;9.93;;;5.65;;
18997;SDS011;9632;51.018;4.284;2022-10-15T07:45:33;8.43;;;5.10;;
18997;SDS011;9632;51.018;4.284;2022-10-15T07:48:00;9.90;;;6.13;;
18997;SDS011;9632;51.018;4.284;2022-10-15T07:50:25;11.05;;;6.18;;
18997;SDS011;9632;51.018;4.284;2022-10-15T07:52:51;12.23;;;5.80;;
18997;SDS011;9632;51.018;4.284;2022-10-15T07:55:16;8.80;;;5.38;;
18997;SDS011;9632;51.018;4.284;2022-10-15T07:57:42;10.50;;;5.40;;
18997;SDS011;9632;51.018;4.284;2022-10-15T08:00:08;7.72;;;4.93;;
18997;SDS011;9632;51.018;4.284;2022-10-15T08:02:34;8.35;;;5.07;;
18997;SDS011;9632;51.018;4.284;2022-10-15T08:04:59;10.52;;;5.63;;
18997;SDS011;9632;51.018;4.284;2022-10-15T08:07:25;9.73;;;5.13;;
18997;SDS011;9632;51.018;4.284;2022-10-15T08:09:51;11.05;;;5.50;;
18997;SDS011;9632;51.018;4.284;2022-10-15T08:12:16;9.48;;;5.00;;
18997;SDS011;9632;51.018;4.284;2022-10-15T08:14:42;8.20;;;5.10;;
18997;SDS011;9632;51.018;4.284;2022-10-15T08:17:07;8.90;;;4.70;;
18997;SDS011;9632;51.018;4.284;2022-10-15T08:19:33;6.80;;;3.95;;
18997;SDS011;9632;51.018;4.284;2022-10-15T08:21:59;8.05;;;4.70;;
18997;SDS011;9632;51.018;4.284;2022-10-15T08:24:25;7.47;;;4.13;;
18997;SDS011;9632;51.018;4.284;2022-10-15T08:26:50;9.40;;;4.00;;
18997;SDS011;9632;51.018;4.284;2022-10-15T08:29:16;6.60;;;3.63;;
18997;SDS011;9632;51.018;4.284;2022-10-15T08:31:42;5.82;;;3.13;;
18997;SDS011;9632;51.018;4.284;2022-10-15T08:34:07;6.75;;;3.20;;
18997;SDS011;9632;51.018;4.284;2022-10-15T08:36:33;6.72;;;3.00;;
18997;SDS011;9632;51.018;4.284;2022-10-15T08:38:59;5.82;;;2.90;;
18997;SDS011;9632;51.018;4.284;2022-10-15T08:41:26;4.45;;;2.70;;
18997;SDS011;9632;51.018;4.284;2022-10-15T08:43:59;4.43;;;2.40;;
18997;SDS011;9632;51.018;4.284;2022-10-15T08:51:53;4.80;;;2.42;;
18997;SDS011;9632;51.018;4.284;2022-10-15T08:54:32;4.10;;;1.80;;
18997;SDS011;9632;51.018;4.284;2022-10-15T08:57:06;3.97;;;2.40;;
18997;SDS011;9632;51.018;4.284;2022-10-15T09:00:12;4.45;;;2.33;;
18997;SDS011;9632;51.018;4.284;2022-10-15T09:02:51;3.58;;;2.55;;
18997;SDS011;9632;51.018;4.284;2022-10-15T09:05:26;5.75;;;2.42;;
18997;SDS011;9632;51.018;4.284;2022-10-15T09:08:17;5.57;;;2.72;;
18997;SDS011;9632;51.018;4.284;2022-10-15T09:10:55;4.13;;;2.50;;
18997;SDS011;9632;51.018;4.284;2022-10-15T09:13:25;5.88;;;3.10;;
18997;SDS011;9632;51.018;4.284;2022-10-15T09:16:04;4.25;;;2.40;;
18997;SDS011;9632;51.018;4.284;2022-10-15T09:18:41;3.45;;;1.90;;
18997;SDS011;9632;51.018;4.284;2022-10-15T09:21:09;3.75;;;2.15;;
18997;SDS011;9632;51.018;4.284;2022-10-15T09:23:37;3.45;;;1.55;;
18997;SDS011;9632;51.018;4.284;2022-10-15T09:31:29;1.55;;;1.00;;
18997;SDS011;9632;51.018;4.284;2022-10-15T09:34:10;2.03;;;0.60;;
18997;SDS011;9632;51.018;4.284;2022-10-15T09:36:49;0.77;;;0.50;;
18997;SDS011;9632;51.018;4.284;2022-10-15T09:39:29;0.95;;;0.60;;
18997;SDS011;9632;51.018;4.284;2022-10-15T09:44:41;2.05;;;0.50;;
18997;SDS011;9632;51.018;4.284;2022-10-15T09:47:41;2.53;;;0.60;;
18997;SDS011;9632;51.018;4.284;2022-10-15T09:50:01;3.28;;;0.50;;
18997;SDS011;9632;51.018;4.284;2022-10-15T09:52:51;1.45;;;0.60;;
18997;SDS011;9632;51.018;4.284;2022-10-15T09:55:51;1.55;;;0.50;;
18997;SDS011;9632;51.018;4.284;2022-10-15T09:58:38;0.93;;;0.60;;
18997;SDS011;9632;51.018;4.284;2022-10-15T10:01:16;0.80;;;0.60;;
18997;SDS011;9632;51.018;4.284;2022-10-15T10:03:43;3.38;;;1.25;;
18997;SDS011;9632;51.018;4.284;2022-10-15T10:06:11;1.65;;;0.80;;
18997;SDS011;9632;51.018;4.284;2022-10-15T10:11:53;0.80;;;0.80;;
18997;SDS011;9632;51.018;4.284;2022-10-15T10:20:03;1.42;;;1.00;;
18997;SDS011;9632;51.018;4.284;2022-10-15T10:22:43;1.20;;;0.93;;
18997;SDS011;9632;51.018;4.284;2022-10-15T10:27:57;1.92;;;0.77;;
18997;SDS011;9632;51.018;4.284;2022-10-15T10:30:23;0.80;;;0.80;;
18997;SDS011;9632;51.018;4.284;2022-10-15T10:32:53;3.30;;;0.88;;
18997;SDS011;9632;51.018;4.284;2022-10-15T10:35:23;2.15;;;0.88;;
18997;SDS011;9632;51.018;4.284;2022-10-15T10:37:50;3.35;;;1.00;;
18997;SDS011;9632;51.018;4.284;2022-10-15T10:40:31;2.13;;;1.30;;
18997;SDS011;9632;51.018;4.284;2022-10-15T10:48:27;3.13;;;1.38;;
18997;SDS011;9632;51.018;4.284;2022-10-15T10:51:03;3.70;;;1.50;;
18997;SDS011;9632;51.018;4.284;2022-10-15T10:53:33;2.33;;;1.65;;
18997;SDS011;9632;51.018;4.284;2022-10-15T10:56:05;4.65;;;2.40;;
18997;SDS011;9632;51.018;4.284;2022-10-15T10:58:32;3.88;;;2.50;;
18997;SDS011;9632;51.018;4.284;2022-10-15T11:00:58;4.63;;;2.28;;
18997;SDS011;9632;51.018;4.284;2022-10-15T11:03:28;2.33;;;1.98;;
18997;SDS011;9632;51.018;4.284;2022-10-15T11:08:59;2.33;;;1.80;;
18997;SDS011;9632;51.018;4.284;2022-10-15T11:11:28;4.75;;;1.88;;
18997;SDS011;9632;51.018;4.284;2022-10-15T11:14:28;3.35;;;1.75;;
18997;SDS011;9632;51.018;4.284;2022-10-15T11:20:04;2.53;;;2.08;;
18997;SDS011;9632;51.018;4.284;2022-10-15T11:25:37;4.32;;;2.80;;
18997;SDS011;9632;51.018;4.284;2022-10-15T11:28:17;4.43;;;2.78;;
18997;SDS011;9632;51.018;4.284;2022-10-15T11:31:26;4.38;;;2.90;;
18997;SDS011;9632;51.018;4.284;2022-10-15T11:37:41;3.63;;;2.78;;
18997;SDS011;9632;51.018;4.284;2022-10-15T11:48:04;2.13;;;1.40;;
18997;SDS011;9632;51.018;4.284;2022-10-15T11:50:39;2.08;;;1.23;;
18997;SDS011;9632;51.018;4.284;2022-10-15T11:56:00;2.58;;;1.08;;
18997;SDS011;9632;51.018;4.284;2022-10-15T11:58:38;3.13;;;0.82;;
18997;SDS011;9632;51.018;4.284;2022-10-15T12:01:16;1.33;;;0.95;;
18997;SDS011;9632;51.018;4.284;2022-10-15T12:03:50;1.45;;;0.90;;
18997;SDS011;9632;51.018;4.284;2022-10-15T12:06:21;0.82;;;0.70;;
18997;SDS011;9632;51.018;4.284;2022-10-15T12:08:52;1.25;;;0.75;;
18997;SDS011;9632;51.018;4.284;2022-10-15T12:11:35;1.70;;;1.10;;
18997;SDS011;9632;51.018;4.284;2022-10-15T12:14:26;2.25;;;0.88;;
18997;SDS011;9632;51.018;4.284;2022-10-15T12:19:55;2.63;;;0.40;;
18997;SDS011;9632;51.018;4.284;2022-10-15T12:22:31;0.90;;;0.20;;
18997;SDS011;9632;51.018;4.284;2022-10-15T12:24:56;2.63;;;0.30;;
18997;SDS011;9632;51.018;4.284;2022-10-15T12:27:24;0.47;;;0.20;;
18997;SDS011;9632;51.018;4.284;2022-10-15T12:32:37;0.55;;;0.30;;
18997;SDS011;9632;51.018;4.284;2022-10-15T12:37:38;4.88;;;0.50;;
18997;SDS011;9632;51.018;4.284;2022-10-15T12:40:24;0.82;;;0.40;;
18997;SDS011;9632;51.018;4.284;2022-10-15T12:42:56;2.88;;;0.30;;
18997;SDS011;9632;51.018;4.284;2022-10-15T12:45:39;1.92;;;0.30;;
18997;SDS011;9632;51.018;4.284;2022-10-15T12:50:46;2.72;;;0.30;;
18997;SDS011;9632;51.018;4.284;2022-10-15T12:53:28;1.00;;;0.28;;
18997;SDS011;9632;51.018;4.284;2022-10-15T12:58:35;1.38;;;0.30;;
18997;SDS011;9632;51.018;4.284;2022-10-15T13:03:52;4.40;;;0.30;;
18997;SDS011;9632;51.018;4.284;2022-10-15T13:08:50;2.40;;;0.50;;
18997;SDS011;9632;51.018;4.284;2022-10-15T13:11:23;1.23;;;0.40;;
18997;SDS011;9632;51.018;4.284;2022-10-15T13:13:54;3.65;;;0.55;;
18997;SDS011;9632;51.018;4.284;2022-10-15T13:16:26;2.60;;;0.50;;
18997;SDS011;9632;51.018;4.284;2022-10-15T13:18:53;3.70;;;0.50;;
18997;SDS011;9632;51.018;4.284;2022-10-15T13:21:21;3.58;;;0.57;;
18997;SDS011;9632;51.018;4.284;2022-10-15T13:24:09;1.90;;;0.70;;
18997;SDS011;9632;51.018;4.284;2022-10-15T13:26:35;2.75;;;0.50;;
18997;SDS011;9632;51.018;4.284;2022-10-15T13:29:00;4.60;;;0.50;;
18997;SDS011;9632;51.018;4.284;2022-10-15T13:31:30;3.85;;;0.50;;
18997;SDS011;9632;51.018;4.284;2022-10-15T13:36:35;2.10;;;0.40;;
18997;SDS011;9632;51.018;4.284;2022-10-15T13:41:33;2.47;;;0.40;;
18997;SDS011;9632;51.018;4.284;2022-10-15T13:44:01;5.32;;;0.50;;
18997;SDS011;9632;51.018;4.284;2022-10-15T13:46:28;2.83;;;0.52;;
18997;SDS011;9632;51.018;4.284;2022-10-15T13:49:00;2.83;;;0.47;;
18997;SDS011;9632;51.018;4.284;2022-10-15T13:51:33;1.90;;;0.35;;
18997;SDS011;9632;51.018;4.284;2022-10-15T13:54:07;7.35;;;0.45;;
18997;SDS011;9632;51.018;4.284;2022-10-15T13:56:36;2.95;;;0.50;;
18997;SDS011;9632;51.018;4.284;2022-10-15T13:59:02;5.05;;;0.60;;
18997;SDS011;9632;51.018;4.284;2022-10-15T14:01:28;3.92;;;0.43;;
18997;SDS011;9632;51.018;4.284;2022-10-15T14:03:57;3.80;;;0.63;;
18997;SDS011;9632;51.018;4.284;2022-10-15T14:09:16;3.35;;;0.50;;
18997;SDS011;9632;51.018;4.284;2022-10-15T14:11:44;4.32;;;0.55;;
18997;SDS011;9632;51.018;4.284;2022-10-15T14:14:25;3.00;;;0.60;;
18997;SDS011;9632;51.018;4.284;2022-10-15T14:17:00;1.98;;;0.43;;
18997;SDS011;9632;51.018;4.284;2022-10-15T14:19:29;4.10;;;0.50;;
18997;SDS011;9632;51.018;4.284;2022-10-15T14:21:56;5.45;;;1.00;;
18997;SDS011;9632;51.018;4.284;2022-10-15T14:24:26;2.85;;;0.60;;
18997;SDS011;9632;51.018;4.284;2022-10-15T14:29:53;2.95;;;0.50;;
18997;SDS011;9632;51.018;4.284;2022-10-15T14:32:41;2.38;;;0.50;;
18997;SDS011;9632;51.018;4.284;2022-10-15T14:35:23;2.80;;;0.50;;
18997;SDS011;9632;51.018;4.284;2022-10-15T14:37:58;3.25;;;0.50;;
18997;SDS011;9632;51.018;4.284;2022-10-15T14:40:25;3.10;;;0.63;;
18997;SDS011;9632;51.018;4.284;2022-10-15T14:45:24;2.97;;;0.50;;
18997;SDS011;9632;51.018;4.284;2022-10-15T14:47:53;6.20;;;0.60;;
18997;SDS011;9632;51.018;4.284;2022-10-15T14:50:25;5.03;;;0.80;;
18997;SDS011;9632;51.018;4.284;2022-10-15T14:52:56;6.78;;;0.80;;
18997;SDS011;9632;51.018;4.284;2022-10-15T14:57:55;3.40;;;0.50;;
18997;SDS011;9632;51.018;4.284;2022-10-15T15:02:56;3.10;;;0.55;;
18997;SDS011;9632;51.018;4.284;2022-10-15T15:05:24;3.05;;;0.60;;
18997;SDS011;9632;51.018;4.284;2022-10-15T15:07:51;4.72;;;0.68;;
18997;SDS011;9632;51.018;4.284;2022-10-15T15:10:18;5.20;;;0.50;;
18997;SDS011;9632;51.018;4.284;2022-10-15T15:12:45;6.75;;;0.70;;
18997;SDS011;9632;51.018;4.284;2022-10-15T15:15:15;4.65;;;0.68;;
18997;SDS011;9632;51.018;4.284;2022-10-15T15:17:43;3.20;;;0.70;;
18997;SDS011;9632;51.018;4.284;2022-10-15T15:20:09;6.38;;;0.85;;
18997;SDS011;9632;51.018;4.284;2022-10-15T15:22:35;3.88;;;0.55;;
18997;SDS011;9632;51.018;4.284;2022-10-15T15:25:18;2.95;;;0.43;;
18997;SDS011;9632;51.018;4.284;2022-10-15T15:27:55;4.65;;;0.80;;
18997;SDS011;9632;51.018;4.284;2022-10-15T15:30:22;2.80;;;0.50;;
18997;SDS011;9632;51.018;4.284;2022-10-15T15:32:49;3.97;;;0.60;;
18997;SDS011;9632;51.018;4.284;2022-10-15T15:35:36;2.60;;;0.60;;
18997;SDS011;9632;51.018;4.284;2022-10-15T15:38:08;4.25;;;0.70;;
18997;SDS011;9632;51.018;4.284;2022-10-15T15:40:35;4.95;;;0.65;;
18997;SDS011;9632;51.018;4.284;2022-10-15T15:43:01;5.35;;;0.70;;
18997;SDS011;9632;51.018;4.284;2022-10-15T15:45:27;4.93;;;0.65;;
18997;SDS011;9632;51.018;4.284;2022-10-15T15:47:53;3.80;;;0.60;;
18997;SDS011;9632;51.018;4.284;2022-10-15T15:50:26;2.50;;;0.60;;
18997;SDS011;9632;51.018;4.284;2022-10-15T15:52:51;5.68;;;0.55;;
18997;SDS011;9632;51.018;4.284;2022-10-15T15:55:17;4.13;;;0.60;;
18997;SDS011;9632;51.018;4.284;2022-10-15T15:57:42;6.97;;;1.23;;
18997;SDS011;9632;51.018;4.284;2022-10-15T16:00:09;7.88;;;0.80;;
18997;SDS011;9632;51.018;4.284;2022-10-15T16:02:36;3.92;;;0.70;;
18997;SDS011;9632;51.018;4.284;2022-10-15T16:05:02;5.97;;;0.70;;
18997;SDS011;9632;51.018;4.284;2022-10-15T16:07:29;4.57;;;0.75;;
18997;SDS011;9632;51.018;4.284;2022-10-15T16:09:54;4.32;;;0.57;;
18997;SDS011;9632;51.018;4.284;2022-10-15T16:12:20;5.25;;;0.60;;
18997;SDS011;9632;51.018;4.284;2022-10-15T16:14:46;3.90;;;0.88;;
18997;SDS011;9632;51.018;4.284;2022-10-15T16:17:12;5.13;;;0.90;;
18997;SDS011;9632;51.018;4.284;2022-10-15T16:19:37;6.93;;;1.15;;
18997;SDS011;9632;51.018;4.284;2022-10-15T16:22:03;2.67;;;0.70;;
18997;SDS011;9632;51.018;4.284;2022-10-15T16:24:29;2.00;;;0.65;;
18997;SDS011;9632;51.018;4.284;2022-10-15T16:26:55;2.85;;;0.52;;
18997;SDS011;9632;51.018;4.284;2022-10-15T16:29:20;6.03;;;0.65;;
18997;SDS011;9632;51.018;4.284;2022-10-15T16:31:46;4.88;;;0.80;;
18997;SDS011;9632;51.018;4.284;2022-10-15T16:34:12;3.38;;;0.80;;
18997;SDS011;9632;51.018;4.284;2022-10-15T16:36:37;7.07;;;1.15;;
18997;SDS011;9632;51.018;4.284;2022-10-15T16:39:04;4.65;;;0.90;;
18997;SDS011;9632;51.018;4.284;2022-10-15T16:41:29;6.05;;;1.20;;
18997;SDS011;9632;51.018;4.284;2022-10-15T16:43:55;4.32;;;0.73;;
18997;SDS011;9632;51.018;4.284;2022-10-15T16:46:20;4.28;;;0.60;;
18997;SDS011;9632;51.018;4.284;2022-10-15T16:48:53;7.07;;;0.80;;
18997;SDS011;9632;51.018;4.284;2022-10-15T16:51:19;6.15;;;0.80;;
18997;SDS011;9632;51.018;4.284;2022-10-15T16:53:46;3.10;;;0.50;;
18997;SDS011;9632;51.018;4.284;2022-10-15T16:56:16;2.97;;;0.85;;
18997;SDS011;9632;51.018;4.284;2022-10-15T16:58:43;2.95;;;0.68;;
18997;SDS011;9632;51.018;4.284;2022-10-15T17:01:10;4.30;;;0.60;;
18997;SDS011;9632;51.018;4.284;2022-10-15T17:03:38;2.25;;;0.57;;
18997;SDS011;9632;51.018;4.284;2022-10-15T17:06:06;3.92;;;0.80;;